Date,TemperatureHighF,TemperatureAvgF,TemperatureLowF,DewpointHighF,DewpointAvgF,DewpointLowF,HumidityHigh,HumidityAvg,HumidityLow,PressureMaxIn,PressureMinIn,WindSpeedMaxMPH,WindSpeedAvgMPH,GustSpeedMaxMPH,PrecipitationSumIn
2013-1-1,75.2,54.9,46.8,32.5,22.2,9.3,47,29,19,29.87,29.72,9,3,11,0.00
2013-1-2,79.0,57.9,45.3,26.6,14.6,7.5,28,18,13,29.75,29.66,12,3,15,0.00
2013-1-3,82.0,55.9,43.0,34.9,19.7,7.7,38,25,15,29.81,29.66,8,2,9,0.00
2013-1-4,83.1,58.1,44.8,28.9,14.4,6.4,25,18,13,29.90,29.78,13,3,16,0.00
2013-1-5,79.2,54.9,42.8,43.9,23.7,7.9,72,32,15,29.90,29.81,9,1,9,0.00
2013-1-6,72.9,56.1,49.1,55.0,40.5,27.1,91,61,24,29.84,29.63,11,3,11,0.20
2013-1-7,81.5,56.4,44.6,46.9,34.9,21.9,94,52,15,29.72,29.60,13,3,17,0.00
2013-1-8,86.7,59.0,47.7,45.5,34.2,23.0,78,44,13,29.72,29.63,7,1,8,0.00
2013-1-9,77.7,59.7,50.0,53.1,38.5,28.6,79,48,21,29.75,29.63,9,2,11,0.00
2013-1-10,67.5,56.6,46.9,51.4,29.9,12.9,81,38,23,29.72,29.57,17,6,19,0.00
2013-1-11,71.8,50.3,38.3,23.4,15.7,9.7,40,26,15,29.81,29.69,11,4,15,0.00
2013-1-12,70.9,49.9,38.5,23.0,15.1,7.9,38,26,15,29.78,29.69,11,3,13,0.00
2013-1-13,75.0,50.8,41.5,21.7,14.0,7.2,33,24,13,29.78,29.69,11,4,14,0.00
2013-1-14,76.5,50.0,36.7,21.9,9.0,0.9,28,19,13,29.96,29.75,15,6,18,0.00
2013-1-15,72.9,51.1,37.4,20.8,10.8,1.0,27,20,14,30.07,29.93,10,3,11,0.00
2013-1-16,81.0,57.2,43.0,34.0,21.5,10.4,49,26,14,29.96,29.72,9,2,11,0.00
2013-1-17,89.4,64.9,48.7,45.5,23.4,10.0,75,23,13,29.78,29.66,13,3,16,0.00
2013-1-18,91.6,65.8,50.4,32.2,18.8,9.7,25,17,12,29.75,29.66,11,2,13,0.00
2013-1-19,94.5,65.3,49.6,32.7,18.0,9.0,19,16,11,29.78,29.69,8,1,11,0.00
2013-1-20,93.7,63.9,47.7,32.7,17.5,7.3,26,17,11,29.75,29.60,6,1,8,0.00
2013-1-21,92.1,63.4,48.2,32.2,16.9,7.9,19,17,12,29.72,29.60,8,1,8,0.00
2013-1-22,95.2,63.8,47.3,32.7,17.1,7.3,29,17,11,29.72,29.63,8,1,8,0.00
2013-1-23,80.1,66.2,57.2,36.5,20.5,12.7,37,18,14,29.75,29.63,8,2,10,0.00
2013-1-24,83.8,66.0,59.0,53.2,39.3,25.2,68,39,19,29.81,29.69,11,3,13,0.08
2013-1-25,71.4,65.4,62.6,65.5,58.3,47.5,98,79,44,29.72,29.54,11,2,13,0.33
2013-1-26,77.0,67.4,62.2,67.6,60.9,47.1,98,81,38,29.63,29.51,8,2,9,0.04
2013-1-27,75.9,61.9,56.7,61.7,44.9,29.1,98,59,21,29.69,29.60,13,4,15,0.08
2013-1-28,72.5,57.5,48.7,46.9,32.8,21.6,86,44,17,29.81,29.63,13,3,13,0.00
2013-1-29,71.6,57.2,48.7,37.0,31.6,25.0,54,40,22,29.87,29.78,9,4,11,0.00
2013-1-30,82.9,62.1,52.2,45.1,34.6,23.4,71,39,19,29.96,29.84,8,2,8,0.00
2013-1-31,86.0,64.6,52.7,47.5,35.0,22.8,64,37,15,29.87,29.69,6,1,8,0.00
2013-2-1,88.2,66.0,55.6,49.1,37.0,24.4,62,38,13,29.78,29.72,8,1,10,0.00
2013-2-2,77.7,66.4,59.2,49.5,38.5,31.1,61,37,22,29.81,29.69,8,1,10,0.00
2013-2-3,83.3,67.4,57.9,53.1,40.3,28.4,71,41,20,29.75,29.63,13,2,15,0.00
2013-2-4,71.6,60.0,53.1,59.0,51.8,40.6,98,77,33,29.72,29.60,8,1,8,0.00
2013-2-5,65.8,61.3,58.1,58.5,49.1,41.5,98,67,44,29.72,29.60,6,1,8,0.00
2013-2-6,76.3,63.2,56.7,52.0,39.2,30.6,84,44,22,29.72,29.63,9,2,10,0.00
2013-2-7,76.6,60.6,52.3,57.2,42.3,32.0,89,55,24,29.75,29.63,9,3,11,0.00
2013-2-8,72.7,57.2,49.5,45.1,33.9,22.6,79,44,22,29.63,29.51,15,4,18,0.13
2013-2-9,73.6,55.5,45.9,46.2,34.6,22.6,85,51,19,29.72,29.54,10,3,11,0.00
2013-2-10,73.0,57.5,51.3,48.7,34.3,24.6,80,45,22,29.72,29.63,11,4,11,0.12
2013-2-11,73.6,58.2,48.9,49.5,37.5,24.1,83,51,22,29.87,29.69,11,3,11,0.00
2013-2-12,73.9,56.6,46.0,36.9,27.7,19.2,55,34,22,29.96,29.87,8,2,10,0.00
2013-2-13,77.0,58.9,47.7,50.2,36.3,27.3,72,46,22,29.87,29.75,8,2,9,0.00
2013-2-14,85.1,62.7,51.4,56.5,43.5,31.6,89,56,19,29.84,29.66,9,1,9,0.00
2013-2-15,94.5,68.8,53.6,52.7,24.6,14.5,83,21,11,29.78,29.72,13,3,13,0.00
2013-2-16,95.4,69.7,52.2,32.9,20.4,9.9,22,16,11,29.75,29.60,11,3,15,0.00
2013-2-17,73.9,60.7,48.6,49.6,34.5,16.5,69,39,26,29.66,29.57,11,3,11,0.00
2013-2-18,72.5,62.1,57.4,41.5,34.6,29.3,48,37,23,29.69,29.60,11,4,11,0.00
2013-2-19,64.2,58.0,54.7,53.2,37.7,27.7,83,49,33,29.63,29.36,13,4,15,0.42
2013-2-20,68.9,56.9,47.8,44.2,26.6,18.9,65,33,17,29.63,29.34,20,6,23,0.00
2013-2-21,74.8,58.4,51.1,47.3,34.5,26.4,72,43,22,29.72,29.60,12,4,12,0.04
2013-2-22,73.6,58.9,50.0,46.9,35.7,27.1,82,46,22,29.84,29.72,8,2,11,0.00
2013-2-23,73.4,59.1,48.9,48.6,35.7,25.3,72,44,23,29.78,29.57,9,3,10,0.00
2013-2-24,87.6,61.0,47.5,46.9,32.8,15.8,83,40,13,29.84,29.60,12,2,17,0.00
2013-2-25,79.3,58.1,43.5,47.8,23.5,5.0,69,28,15,29.84,29.69,9,2,10,0.00
2013-2-26,77.9,60.6,49.8,46.6,33.7,14.0,71,40,19,29.72,29.60,10,2,11,0.00
2013-2-27,83.8,62.7,49.5,29.5,18.1,8.8,25,18,14,29.87,29.72,13,3,15,0.00
2013-2-28,89.1,63.9,47.5,31.8,18.0,7.3,24,17,13,29.93,29.84,9,2,11,0.00
2013-3-1,95.5,71.3,54.9,32.7,20.9,11.3,18,15,11,29.90,29.75,11,3,13,0.00
2013-3-2,97.0,68.8,55.6,34.3,23.6,11.5,35,19,11,29.81,29.69,8,1,8,0.00
2013-3-3,79.5,64.6,55.2,56.8,40.7,17.1,84,45,19,29.72,29.63,15,3,16,0.00
2013-3-4,77.5,65.6,59.9,56.7,44.6,32.2,83,50,22,29.72,29.66,9,3,11,0.00
2013-3-5,69.8,63.7,61.3,50.2,44.6,38.5,63,50,33,29.75,29.66,10,3,10,0.00
2013-3-6,73.8,62.6,56.7,45.9,35.1,27.5,56,37,21,29.78,29.63,10,3,11,0.00
2013-3-7,69.3,62.1,58.3,57.7,44.5,32.7,86,55,30,29.63,29.48,11,4,11,0.00
2013-3-8,72.1,59.9,53.1,55.8,40.7,24.6,92,55,22,29.66,29.39,17,4,17,0.37
2013-3-9,71.8,61.6,54.7,45.0,35.5,27.3,65,39,23,29.84,29.66,12,4,15,0.00
2013-3-10,82.9,62.6,52.3,47.7,33.8,15.8,73,39,16,29.87,29.78,9,2,11,0.00
2013-3-11,62.4,54.0,50.9,40.1,29.8,23.9,47,39,32,29.81,29.75,5,1,6,0.00
2013-3-23,-200.0,0.0,200.0,-99.9,-99.9,-99.9,0,0,100,0.00,40.00,0,-999,0,0.00
2013-3-24,66.6,61.4,62.8,61.3,51.2,-99.9,89,78,48,29.62,29.56,5,-61,5,0.00
2013-3-25,81.0,65.8,59.9,61.2,55.2,36.3,92,71,22,29.59,29.50,6,-65,6,0.00
2013-3-26,67.1,64.3,63.1,58.1,54.3,47.3,79,70,49,29.56,29.53,6,-51,6,0.00
2013-3-31,72.9,72.9,72.9,41.4,41.4,41.4,32,32,32,0.00,40.00,0,-999,0,0.00
2013-4-30,75.4,67.6,64.9,59.5,49.0,40.8,82,53,29,29.53,29.44,10,-17,10,0.04
2013-5-1,71.6,65.9,64.4,62.1,58.9,47.3,87,80,42,29.62,29.50,8,1,8,0.00
2013-5-4,76.6,60.9,64.8,48.6,29.1,-99.9,51,38,26,29.47,29.38,14,-41,15,0.00
2013-5-5,76.8,64.6,64.4,58.3,41.7,-99.9,79,49,24,29.56,29.44,13,-12,14,0.00
2013-5-6,77.9,63.2,63.5,67.1,44.1,-99.9,98,65,25,29.62,29.53,13,-20,15,0.37
2013-5-15,77.0,56.7,67.3,51.6,16.0,-99.9,56,32,25,29.65,29.59,11,-73,11,0.00
2013-5-19,68.9,67.8,67.3,60.8,58.9,57.0,79,73,67,29.53,29.53,4,1,5,0.00
2013-5-20,83.5,72.3,65.1,63.9,52.5,-99.9,87,55,24,29.56,29.50,9,1,10,0.00
2013-5-21,81.3,72.0,69.8,62.4,49.2,-99.9,77,48,29,29.56,29.47,9,-4,10,0.00
2013-5-22,70.5,67.0,69.1,53.2,45.8,-99.9,55,51,50,29.47,29.41,7,-13,8,0.00
2013-5-28,70.0,63.8,68.7,60.8,46.1,-99.9,75,64,64,29.41,29.38,8,5,10,0.00
2013-6-8,73.0,47.4,67.6,59.7,6.8,-99.9,76,44,47,29.50,29.41,7,-158,8,0.00
2013-6-14,-200.0,0.0,200.0,-99.9,-99.9,-99.9,0,0,100,0.00,40.00,0,-999,0,0.00
2013-6-15,80.8,72.8,68.0,56.3,44.4,-99.9,62,39,22,29.59,29.50,10,-2,11,0.00
2013-6-16,82.2,72.7,68.0,64.9,48.7,39.2,87,46,23,29.65,29.56,10,4,11,0.00
2013-6-17,81.5,73.0,67.3,65.3,53.1,41.5,88,53,25,29.59,29.50,9,3,10,0.00
2013-6-18,80.8,72.2,67.6,63.7,54.8,44.6,82,57,30,29.53,29.47,9,3,10,0.00
2013-6-19,84.4,73.8,68.2,65.8,50.7,40.6,86,48,22,29.47,29.41,10,3,11,0.00
2013-6-20,85.1,73.5,64.0,67.3,54.4,39.9,92,57,23,29.47,29.41,9,3,10,0.00
2013-6-21,81.1,72.9,65.8,65.3,55.1,44.2,92,59,28,29.53,29.44,10,3,11,0.00
2013-6-22,82.6,73.4,67.6,64.6,50.7,39.7,86,48,23,29.53,29.44,12,4,13,0.00
2013-6-23,79.5,71.9,68.0,56.3,49.0,40.6,63,46,26,29.50,29.41,12,4,14,0.00
2013-6-24,82.6,72.2,66.9,65.1,52.6,41.0,86,54,25,29.56,29.44,8,3,10,0.00
2013-6-25,84.2,75.2,67.6,67.8,56.9,46.0,90,58,28,29.62,29.50,11,3,15,0.00
2013-6-26,87.8,76.5,68.9,69.3,58.7,42.1,94,60,22,29.59,29.53,8,0,9,0.00
2013-6-27,87.1,76.6,69.3,68.4,59.3,44.2,90,61,24,29.65,29.56,7,2,8,0.00
2013-6-28,90.9,77.8,70.0,70.5,59.4,43.5,93,60,21,29.62,29.50,8,2,8,0.00
2013-6-29,93.6,78.8,71.4,75.0,62.4,43.3,97,65,18,29.50,29.35,9,2,9,0.00
2013-6-30,88.3,77.7,70.7,73.8,63.2,49.8,96,66,27,29.41,29.32,11,3,15,0.00
2013-7-1,92.1,78.2,71.2,70.9,62.4,47.8,92,64,22,29.50,29.41,8,2,8,0.00
2013-7-2,84.2,76.5,72.0,72.7,64.1,50.0,97,69,34,29.62,29.47,11,2,11,0.00
2013-7-3,88.9,77.1,73.2,71.4,63.4,50.0,91,66,29,29.53,29.41,8,2,9,0.00
2013-7-4,87.8,76.8,72.3,66.7,58.6,46.6,82,57,28,29.44,29.38,9,3,10,0.00
2013-7-5,87.1,76.7,72.9,61.7,56.7,45.9,65,52,24,29.47,29.38,10,3,13,0.00
2013-7-6,84.6,76.2,73.4,63.1,59.0,50.5,70,56,32,29.44,29.38,10,2,10,0.00
2013-7-7,87.6,77.3,71.4,67.6,59.0,49.1,86,56,29,29.47,29.38,10,3,11,0.00
2013-7-8,89.6,77.6,72.1,67.8,60.1,45.3,83,60,22,29.53,29.44,12,2,12,0.00
2013-7-9,90.1,77.4,69.4,71.2,59.4,42.8,92,60,20,29.62,29.50,11,3,13,0.00
2013-7-10,86.4,77.6,73.9,69.8,63.9,52.9,84,65,33,29.59,29.50,8,2,9,0.00
2013-7-11,83.8,77.0,72.7,70.7,64.7,56.3,86,68,40,29.56,29.50,8,2,9,0.00
2013-7-12,90.7,79.6,74.5,67.8,60.1,45.1,77,55,21,29.53,29.47,9,2,10,0.00
2013-7-13,87.1,78.0,71.8,67.3,58.0,46.6,84,53,25,29.56,29.47,10,3,10,0.00
2013-7-14,90.0,78.7,72.1,68.4,58.4,46.8,86,54,24,29.53,29.44,9,2,10,0.00
2013-7-15,90.1,78.1,70.2,70.5,58.6,41.5,87,57,22,29.47,29.41,10,3,10,0.00
2013-7-16,87.1,75.6,66.6,69.8,57.0,42.4,94,59,22,29.59,29.44,9,-14,10,0.00
2013-7-17,89.4,75.5,65.1,68.9,56.9,41.0,98,61,19,29.62,29.56,11,2,11,0.00
2013-7-18,85.3,74.2,65.8,69.6,56.6,42.6,92,61,23,29.59,29.47,8,2,9,0.00
2013-10-11,83.1,72.7,62.6,57.4,45.5,36.5,81,43,21,31.01,30.65,11,4,13,0.29
2013-10-12,86.4,69.9,60.1,66.4,53.5,37.8,98,64,21,31.01,30.18,10,2,10,0.00
2013-10-13,82.6,69.3,61.0,60.4,47.2,35.2,77,48,21,31.01,29.97,9,3,11,0.00
2013-10-14,89.4,70.6,59.5,65.7,51.6,36.3,98,60,18,31.01,29.94,9,2,10,0.00
2013-10-15,99.0,74.5,56.8,65.1,41.5,20.1,98,42,10,31.01,29.62,6,1,8,0.00
2013-10-16,99.3,73.6,60.4,35.1,24.1,14.4,36,17,10,31.01,29.68,9,2,11,0.00
2013-10-17,91.8,69.5,56.7,41.0,24.3,12.4,36,19,12,31.01,29.77,6,1,7,0.00
2013-10-18,90.1,69.3,57.4,50.2,38.4,29.7,51,34,18,31.01,30.03,8,1,8,0.00
2013-10-19,88.5,69.1,58.6,64.4,48.4,37.2,97,53,20,31.01,30.71,6,1,8,0.00
2013-10-20,84.7,69.2,57.9,69.3,55.4,39.6,98,70,22,31.01,30.56,8,1,9,0.00
2013-10-21,87.1,70.4,62.1,64.0,53.4,37.9,92,62,19,31.01,31.01,8,2,10,0.00
2013-10-22,84.7,71.0,62.4,64.6,53.8,39.7,94,60,22,31.01,31.01,11,2,11,0.00
2013-10-23,83.5,71.0,68.0,55.6,46.8,36.7,62,44,21,31.01,31.01,10,2,11,0.00
2013-10-24,82.9,70.3,63.0,55.8,46.4,35.2,75,45,20,31.01,31.01,9,2,10,0.00
2013-10-25,84.9,70.8,61.7,63.3,51.0,38.1,92,55,21,31.01,31.01,11,2,13,0.00
2013-10-26,81.1,68.5,61.2,68.4,59.7,45.5,98,78,30,31.01,31.01,8,2,8,0.00
2013-10-27,84.7,71.4,64.8,72.1,58.9,41.9,98,70,24,31.01,31.01,8,2,9,0.00
2013-10-28,77.5,68.8,61.3,64.8,46.9,36.1,90,48,23,31.01,31.01,10,3,11,0.00
2013-10-29,79.2,66.9,58.3,58.1,43.3,31.1,83,47,20,31.01,31.01,9,2,10,0.00
2013-10-30,82.6,67.6,58.5,54.1,44.4,34.0,73,47,20,31.01,31.01,9,2,10,0.00
2013-10-31,88.9,67.7,56.5,47.8,37.7,30.0,68,37,15,31.01,31.01,8,2,8,0.00
2013-11-1,99.0,70.6,55.0,39.7,30.0,18.9,46,25,10,31.01,31.01,7,2,8,0.00
2013-11-2,88.5,68.5,57.2,66.0,34.8,15.3,87,36,13,31.01,31.01,11,3,12,0.00
2013-11-3,82.2,69.1,63.0,62.6,45.8,35.1,89,47,21,31.01,31.01,11,4,11,0.00
2013-11-4,75.9,65.3,58.5,52.0,40.9,31.5,77,43,21,31.01,31.01,9,2,11,0.00
2013-11-5,87.1,65.8,53.8,63.7,38.4,11.3,96,45,16,31.01,31.01,8,2,8,0.00
2013-11-6,91.2,66.5,50.4,37.8,19.2,9.7,23,16,12,31.01,31.01,8,2,9,0.00
2013-11-7,99.7,70.4,54.7,34.9,20.2,11.3,18,15,10,31.01,31.01,8,0,9,0.00
2013-11-8,84.6,66.5,52.2,66.4,37.2,11.8,98,43,14,31.01,31.01,8,1,9,0.00
2013-11-9,93.2,67.2,54.3,63.7,50.2,26.6,98,66,11,31.01,31.01,6,1,8,0.00
2013-11-10,100.0,69.1,55.8,56.7,36.3,15.3,91,35,10,31.01,31.01,9,1,10,0.00
2013-11-11,88.5,68.4,55.9,63.9,46.6,33.6,88,53,16,31.01,17.72,8,1,8,0.00
2013-11-12,81.0,68.1,59.4,54.9,41.8,27.7,80,41,22,17.72,17.72,8,1,9,0.00
2013-11-13,102.4,74.1,59.2,40.8,29.8,16.9,45,22,9,17.72,17.72,8,1,8,0.00
2013-11-14,102.7,74.1,61.3,65.1,37.1,18.5,95,33,9,17.72,17.72,9,2,10,0.00
2013-11-15,80.1,68.3,63.0,65.3,51.6,37.0,96,58,23,17.72,17.72,15,4,15,0.00
2013-11-16,80.8,66.7,61.3,62.2,43.3,29.1,90,47,19,17.72,17.72,13,3,13,0.04
2013-11-17,78.8,66.1,59.9,57.7,46.2,33.3,84,54,21,17.72,17.72,9,3,10,0.00
2013-11-18,82.6,68.0,59.4,61.0,49.2,35.1,92,56,21,17.72,17.72,9,3,11,0.00
2013-11-19,70.9,65.7,62.4,60.4,52.0,41.4,83,63,36,17.72,17.72,6,1,8,0.00
2013-11-20,82.8,68.8,62.2,65.1,50.9,37.8,98,57,23,17.72,17.72,10,3,10,0.17
2013-11-21,76.8,67.9,65.1,67.5,61.6,45.7,98,82,35,17.72,17.72,11,4,11,0.33
2013-11-22,69.4,61.8,56.8,51.4,37.2,30.6,66,41,27,17.72,17.72,10,3,13,0.00
2013-11-23,93.4,64.3,56.8,43.9,32.9,23.2,54,33,11,17.72,40.00,11,4,13,0.00
2013-11-24,82.0,63.8,53.4,48.9,35.8,28.2,61,37,20,29.80,29.74,9,3,11,0.00
2013-11-25,86.0,64.5,53.4,44.6,34.9,22.3,68,36,16,29.85,29.77,10,2,10,0.00
2013-11-26,92.8,67.0,54.3,45.0,32.2,18.9,52,30,12,29.80,29.65,10,2,10,0.00
2013-11-27,87.8,67.2,55.4,56.7,28.3,20.3,74,25,13,29.65,29.47,8,2,9,0.00
2013-11-28,81.1,63.9,53.8,47.8,34.6,21.7,56,35,20,29.65,29.50,8,2,10,0.00
2013-11-29,70.7,63.3,60.6,58.6,46.9,36.1,89,57,36,29.77,29.65,8,1,8,0.04
2013-11-30,87.4,67.7,58.1,54.5,44.3,35.8,84,47,19,29.77,29.68,6,1,9,0.00
2013-12-1,97.3,68.3,57.2,52.2,35.9,15.8,75,35,11,29.80,29.71,6,1,6,0.00
2013-12-2,88.9,65.3,54.5,50.0,30.7,11.3,61,31,14,29.71,29.53,8,1,9,0.00
2013-12-3,77.7,63.9,54.7,50.4,43.0,29.5,67,47,25,29.53,29.38,11,4,13,0.00
2013-12-4,75.2,59.4,51.3,40.1,28.0,18.9,47,31,17,29.59,29.41,11,4,14,0.00
2013-12-5,75.6,57.7,49.5,33.1,26.2,20.3,44,31,15,29.71,29.56,10,4,11,0.04
2013-12-6,73.6,56.4,50.4,31.5,26.1,21.9,40,32,20,29.80,29.71,12,5,13,0.00
2013-12-7,68.0,56.2,49.5,55.9,32.4,23.0,85,42,27,29.74,29.62,14,5,14,0.13
2013-12-8,77.5,53.5,44.6,30.9,25.2,15.8,48,35,15,29.80,29.71,8,2,11,0.00
2013-12-9,85.5,54.9,41.0,29.5,12.5,5.5,29,19,12,29.88,29.77,15,5,17,0.00
2013-12-10,80.2,55.9,41.0,28.2,14.9,4.1,36,20,12,29.85,29.68,13,2,16,0.00
2013-12-11,84.4,59.4,45.1,45.9,23.1,6.4,63,27,13,29.77,29.68,6,-5,6,0.00
2013-12-12,83.5,61.8,52.3,53.2,39.1,23.0,90,50,14,29.83,29.74,9,2,10,0.00
2013-12-13,79.0,60.5,51.3,55.4,43.0,29.8,97,60,21,29.83,29.74,8,2,10,0.00
2013-12-14,88.0,64.1,52.3,55.9,36.4,11.7,98,47,13,29.88,29.77,10,2,12,0.00
2013-12-15,95.5,64.9,51.4,41.9,23.8,9.7,41,22,11,29.83,29.68,6,1,11,0.00
2013-12-16,99.7,67.6,55.2,34.2,23.7,14.0,36,20,10,29.74,29.65,6,1,7,0.00
2013-12-17,93.4,67.4,56.1,48.7,27.3,15.3,58,25,11,29.74,29.59,6,0,6,0.00
2013-12-18,83.3,65.9,59.9,61.3,42.0,25.2,87,45,16,29.62,29.47,10,3,15,0.00
2013-12-19,65.3,58.3,50.7,54.9,41.8,34.7,81,55,38,29.50,29.32,12,2,12,0.00
2013-12-20,75.9,58.8,48.6,48.6,41.3,31.3,89,58,22,29.56,29.38,9,2,11,0.00
2013-12-21,74.8,60.9,54.9,50.0,42.6,31.8,80,55,24,29.68,29.53,10,3,11,0.00
2013-12-22,82.6,63.0,52.0,60.8,44.9,32.4,87,59,20,29.85,29.68,6,1,8,0.00
2013-12-23,92.7,66.5,53.1,48.9,29.2,17.2,74,29,12,29.88,29.80,7,-3,9,0.00
2013-12-24,90.7,65.2,53.4,35.4,25.2,14.2,38,23,12,29.80,29.68,6,1,6,0.00
2013-12-25,95.5,70.0,52.7,32.9,23.7,15.8,36,19,11,29.80,29.68,13,3,14,0.00
2013-12-26,105.3,68.5,52.7,35.1,19.5,10.4,24,16,9,29.77,29.65,10,2,11,0.00
2013-12-27,98.2,66.2,49.3,34.7,18.0,8.8,19,16,11,29.74,29.65,5,1,6,0.00
2013-12-28,84.2,62.3,52.2,50.0,24.0,9.9,80,26,13,29.65,29.53,10,2,12,0.00
2013-12-29,93.0,62.4,50.0,66.6,37.6,9.7,95,48,12,29.74,29.59,8,2,8,0.00
2013-12-30,92.8,62.4,46.2,32.7,19.7,6.4,36,20,12,29.85,29.74,6,1,8,0.00
2013-12-31,84.2,60.8,47.8,56.1,34.8,16.5,92,45,15,29.80,29.68,6,1,8,0.00
2014-1-1,85.8,64.6,53.1,65.3,49.3,26.6,98,68,14,29.74,29.62,7,1,8,0.00
2014-1-2,88.2,64.0,53.1,54.5,45.6,32.5,93,60,18,29.71,29.59,5,1,6,0.00